Pagrindinis puslapis
METAR-TAF:

METAR-TAF

Oro uostai :

Uagadugu oro uostas

Uagadugu, Burkina Fasas

platuma: 12-21N, ilguma: 001-31W, Aukštis: 316 m

Dabartinis oras

Ataskaita buvo paskelbta 1 valandą ir 11 minutes, ne 19:00 UTC
Vėjas 2 kt nuo kintamojo kryptimis
Temperatūra 31°C
Drėgmė 49%
Slėgis 1012 hPa
Matomumas: 8000 m

METAR: DFFD 221900Z VRB02KT 8000 NSC 31/19 Q1012 NOSIG

Laikas: 20:11 (20:11 UTC)

Prognozė

Ataskaita buvo paskelbta 3 valandos ir 11 minutes, ne 17:00 UTC
Prognozė galioja nuo 22 metu 18 UTC su 23 metu 24 UTC
Vėjas 8 kt nuo kintamojo kryptimis
Matomumas 10 km arba daugiau
Mažai debesys ne aukštis 2600 ft

TAF: DFFD 221700Z 2218/2324 VRB08KT 9999 FEW026

Orai ataskaitas ir orų prognozės (METAR, TAF).

turimą stotys yra geltonos ir raudonos taškus žemėlapyje.

Perkelti pele per norėdami pamatyti stoties vardą.

Tada spustelėkite, norėdami matyti oro stebėjimo ir prognozės.

Norėdami pakeisti žemėlapį: spustelėkite ant žalios mygtukų su juodo kryžiaus žemyn,; žalią mygtuką su brūkšneliu, jei norite nutolinti; arba žalių rodyklių gretimoms žemėlapius.


METAR-TAF: